Terminal Aerodrome Forecast
Issued by NWS Sterling, VA

Current Version | Previous Version | Graphics & Text | Print | Product List | Glossary On
Versions: 1 2 3 4 5 6 7 8 9 10 11 12 13 14 15 16 17 18 19 20 21 22 23
000
FTUS41 KLWX 250532
TAFIAD
TAF
KIAD 250532Z 2506/2612 31007KT P6SM BKN050
     FM250700 31007KT P6SM SCT050
     FM251500 31008KT P6SM FEW250
     FM260300 VRB03KT P6SM SKC=

USA.gov is the U.S. government's official web portal to all federal, state and local government web resources and services.